Sprague River, Oregon
Current Conditions -  °F | °C
As of 1:53 AM on Monday 26 Jan 2015 (Local Time) from KLMT Reporting Station
Clear Clear  
Wind Chill: 29°   Ceiling: Unl
Heat Index: 34°   Visibility: 10mi
Dew Point: 30°   Wind: 6mph
Humidity: 85%   Direction: 300°WNW
Pressure: 30.17"   Gusts: NA
Location:  42.46°N, 121.51°W
Report Text: KLMT 260953Z AUTO 30005KT 10SM CLR 01/M01 A3017 RMK AO2 SLP211 T00111011
Loading
Personal Weather Stations






























Interactive Weather Map New forecast layout! Learn more

10-Day Weather Forecast

Advertisements
Track Severe Weather on mobile